| Date | Time | Temp. (oF) | Dew Point (oF) | Rel. Hum. (%) | Press. (in.) | Wind Dir. | Wind Speed (mph) | Hourly Rainfall (in.) |
|
|---|---|---|---|---|---|---|---|---|---|
| 1 | 09/26 | 00:00 | 63 | 59 | 87 | 30.25 | ENE | 3 | 0.00 |
| 2 | 09/25 | 23:00 | 64 | 56 | 78 | 30.28 | SE | 1 | 0.00 |
| 3 | 09/25 | 22:00 | 65 | 57 | 78 | 30.28 | E | 2 | 0.00 |
| 4 | 09/25 | 21:00 | 66 | 56 | 71 | 30.28 | ENE | 0 | 0.00 |
| 5 | 09/25 | 20:00 | 68 | 56 | 66 | 30.27 | ENE | 2 | 0.00 |
| 6 | 09/25 | 19:00 | 70 | 55 | 61 | 30.26 | ENE | 2 | 0.00 |
| 7 | 09/25 | 18:00 | 71 | 54 | 57 | 30.26 | ENE | 3 | 0.00 |
| 8 | 09/25 | 17:00 | 72 | 54 | 55 | 30.25 | E | 5 | 0.00 |
| 9 | 09/25 | 16:00 | 73 | 55 | 55 | 30.27 | ESE | 2 | 0.00 |
| 10 | 09/25 | 15:00 | 73 | 56 | 57 | 30.28 | E | 4 | 0.00 |
| 11 | 09/25 | 14:00 | 72 | 56 | 58 | 30.30 | NE | 7 | 0.00 |
| 12 | 09/25 | 13:00 | 72 | 56 | 58 | 30.31 | ENE | 3 | 0.00 |
| 13 | 09/25 | 12:00 | 71 | 55 | 59 | 30.33 | ENE | 6 | 0.00 |
| 14 | 09/25 | 11:00 | 69 | 54 | 59 | 30.35 | NNE | 7 | 0.00 |
| 15 | 09/25 | 10:00 | 62 | 58 | 88 | 30.36 | E | 5 | 0.00 |
| 16 | 09/25 | 09:00 | 55 | 54 | 100 | 30.37 | SSE | 1 | 0.00 |
| 17 | 09/25 | 08:00 | 51 | 50 | 100 | 30.35 | SSE | 0 | 0.00 |
| 18 | 09/25 | 07:00 | 50 | 49 | 99 | 30.34 | NW | 0 | 0.00 |
| 19 | 09/25 | 06:00 | 50 | 49 | 98 | 30.33 | SSW | 0 | 0.00 |
| 20 | 09/25 | 05:00 | 51 | 49 | 96 | 30.32 | S | 0 | 0.00 |
| 21 | 09/25 | 04:00 | 52 | 50 | 96 | 30.31 | S | 0 | 0.00 |
| 22 | 09/25 | 03:00 | 53 | 51 | 96 | 30.31 | WNW | 0 | 0.00 |
| 23 | 09/25 | 02:00 | 53 | 51 | 94 | 30.31 | WNW | 0 | 0.00 |
| 24 | 09/25 | 01:00 | 54 | 51 | 91 | 30.31 | WNW | 1 | 0.00 |